aviador You're here:

LEIB Decoded Metar

IBIZA in SPAIN
Report Time2017-10-17 20:00:00
UTC Time2017-10-17 20:33:52
Flight Rules vfr VFR
WindVRB at 02 kt
Visibility9999 m
Phenomena:N/A
Clouds:Few 025 Hf
Expected CloudBase > 1,200 ft AGL from Temp-Dew spread
CeilingNone
Temp19°C (ISA +4)
Dew Point16°C (83% RH)
QNH1020 hPa
Density Alt522 ft
Elevation39 ft
Report Wrong Elevation
Raw Report
LEIB 172000Z VRB02KT 9999 FEW025 19/16 Q1020 NOSIG=

Extra information for LEIB:More info

Metar Taf Metar & Taf Last 4 Metars F.Rules Stats Wind Profile Meteogram Temp Stats Airport Information Weather charts Add Link Nearby VenuesMetar ALERT Operation Metar Decoded Social comments